Time;durP1;ratioP1;P1;durP2;ratioP2;P2;SDS_P1;SDS_P2;PMS_P1;PMS_P2;Temp;Humidity;BMP_temperature;BMP_pressure;BME280_temperature;BME280_humidity;BME280_pressure;Samples;Min_cycle;Max_cycle;Signal;HPM_P1;HPM_P2
2023/05/09 00:01:59;;;;;;;4.12;3.50;;;;;;;;;;4401663;32;316724;-89
2023/05/09 00:04:26;;;;;;;11.50;3.58;;;;;;;;;;4391591;32;316744;-89
2023/05/09 00:06:54;;;;;;;8.77;3.03;;;;;;;;;;4401577;32;317857;-88
2023/05/09 00:09:22;;;;;;;4.25;3.45;;;;;;;;;;4391570;32;316870;-89
2023/05/09 00:11:51;;;;;;;5.65;3.37;;;;;;;;;;4401544;32;316699;-89
2023/05/09 00:14:18;;;;;;;3.65;3.12;;;;;;;;;;4400706;32;316650;-89
2023/05/09 00:16:46;;;;;;;4.45;3.00;;;;;;;;;;4386280;32;418965;-89
2023/05/09 00:19:13;;;;;;;6.15;3.12;;;;;;;;;;4387998;32;316854;-88
2023/05/09 00:21:41;;;;;;;3.40;2.87;;;;;;;;;;4390180;32;316831;-89
2023/05/09 00:24:08;;;;;;;6.03;3.20;;;;;;;;;;4403488;32;316966;-91
2023/05/09 00:26:36;;;;;;;2.97;2.65;;;;;;;;;;4392797;32;316809;-83
2023/05/09 00:29:04;;;;;;;5.18;3.42;;;;;;;;;;4408273;32;316697;-89
2023/05/09 00:31:32;;;;;;;3.97;3.25;;;;;;;;;;4389836;32;316608;-89
2023/05/09 00:34:00;;;;;;;3.05;2.55;;;;;;;;;;4408461;32;356053;-89
2023/05/09 00:36:27;;;;;;;2.70;2.50;;;;;;;;;;4400272;32;316451;-88
2023/05/09 00:38:55;;;;;;;4.00;2.70;;;;;;;;;;4411725;32;316602;-90
2023/05/09 00:41:23;;;;;;;2.55;2.35;;;;;;;;;;4400414;32;316580;-89
2023/05/09 00:43:50;;;;;;;4.60;2.87;;;;;;;;;;4406839;32;316624;-90
2023/05/09 00:46:22;;;;;;;4.40;2.83;;;;;;;;;;4409991;32;315317;-92
2023/05/09 00:48:51;;;;;;;5.03;2.37;;;;;;;;;;4395572;32;416750;-90
2023/05/09 00:51:19;;;;;;;5.10;2.30;;;;;;;;;;4406946;32;316833;-90
2023/05/09 00:53:46;;;;;;;3.53;2.50;;;;;;;;;;4394616;32;418971;-90
2023/05/09 00:56:15;;;;;;;5.12;2.47;;;;;;;;;;4406000;32;316800;-90
2023/05/09 00:58:43;;;;;;;4.03;2.80;;;;;;;;;;4395985;32;316585;-90
2023/05/09 01:01:11;;;;;;;7.05;2.30;;;;;;;;;;4404755;32;316632;-90
2023/05/09 01:03:42;;;;;;;2.83;2.37;;;;;;;;;;4396584;32;316593;-90
2023/05/09 01:06:16;;;;;;;6.12;2.72;;;;;;;;;;4408802;32;316660;-90
2023/05/09 01:08:55;;;;;;;5.25;2.40;;;;;;;;;;4398362;32;316795;-90
2023/05/09 01:11:29;;;;;;;4.20;2.25;;;;;;;;;;4393761;32;316777;-89
2023/05/09 01:14:12;;;;;;;4.90;2.58;;;;;;;;;;4403463;32;316819;-91
2023/05/09 01:16:46;;;;;;;17.23;2.83;;;;;;;;;;4395421;32;316612;-87
2023/05/09 01:19:43;;;;;;;3.45;2.62;;;;;;;;;;4400786;32;317740;-87
2023/05/09 01:22:16;;;;;;;5.65;2.80;;;;;;;;;;4384792;32;386969;-89
2023/05/09 01:25:05;;;;;;;5.87;2.62;;;;;;;;;;4391795;32;317224;-89
2023/05/09 01:27:44;;;;;;;3.12;2.33;;;;;;;;;;4391360;32;316660;-89
2023/05/09 01:30:17;;;;;;;7.87;2.92;;;;;;;;;;4402057;32;330189;-89
2023/05/09 01:32:50;;;;;;;9.75;2.67;;;;;;;;;;4392248;32;316836;-89
2023/05/09 01:35:18;;;;;;;12.00;3.33;;;;;;;;;;4401734;32;316634;-89
2023/05/09 01:37:49;;;;;;;3.90;2.87;;;;;;;;;;4390201;32;419819;-90
2023/05/09 01:40:21;;;;;;;5.00;3.45;;;;;;;;;;4403305;32;326046;-90
2023/05/09 01:42:52;;;;;;;3.83;3.30;;;;;;;;;;4389860;32;419921;-90
2023/05/09 01:45:23;;;;;;;5.37;2.42;;;;;;;;;;4393180;32;316838;-88
2023/05/09 01:47:51;;;;;;;6.20;3.10;;;;;;;;;;4401933;32;316670;-83
2023/05/09 01:50:20;;;;;;;5.55;2.78;;;;;;;;;;4401292;32;316764;-89
2023/05/09 01:52:49;;;;;;;5.35;3.10;;;;;;;;;;4389609;32;416490;-89
2023/05/09 01:55:20;;;;;;;4.43;2.83;;;;;;;;;;4403103;32;316493;-89
2023/05/09 01:57:48;;;;;;;4.75;2.47;;;;;;;;;;4390768;32;416295;-90
2023/05/09 02:00:17;;;;;;;2.90;2.47;;;;;;;;;;4401482;32;316629;-89
2023/05/09 02:02:46;;;;;;;5.62;2.72;;;;;;;;;;4396434;32;316702;-89
2023/05/09 02:05:15;;;;;;;5.00;2.87;;;;;;;;;;4418959;32;323299;-84
2023/05/09 02:07:44;;;;;;;4.35;3.00;;;;;;;;;;4420059;27;315815;-92
2023/05/09 02:10:13;;;;;;;7.00;2.75;;;;;;;;;;4405730;32;316045;-92
2023/05/09 02:12:42;;;;;;;8.45;2.33;;;;;;;;;;4395432;32;316239;-93
2023/05/09 02:15:11;;;;;;;3.30;2.72;;;;;;;;;;4405940;32;316245;-92
2023/05/09 02:17:39;;;;;;;2.10;1.90;;;;;;;;;;4384306;32;316158;-94
2023/05/09 02:20:10;;;;;;;3.90;2.62;;;;;;;;;;4394222;32;316376;-94
2023/05/09 02:22:37;;;;;;;2.28;2.08;;;;;;;;;;4390189;32;316408;-92
2023/05/09 02:25:09;;;;;;;2.47;2.22;;;;;;;;;;4402604;32;315013;-92
2023/05/09 02:27:39;;;;;;;2.70;1.87;;;;;;;;;;4411621;32;315106;-93
2023/05/09 02:30:12;;;;;;;7.00;2.10;;;;;;;;;;4406700;32;315129;-92
2023/05/09 02:32:42;;;;;;;5.78;2.20;;;;;;;;;;4389501;32;315003;-92
2023/05/09 02:35:13;;;;;;;4.53;1.75;;;;;;;;;;4406768;32;333266;-92
2023/05/09 02:37:43;;;;;;;2.10;1.87;;;;;;;;;;4377869;32;315031;-93
2023/05/09 02:40:11;;;;;;;7.15;2.30;;;;;;;;;;4400531;32;316654;-92
2023/05/09 02:42:40;;;;;;;2.83;2.30;;;;;;;;;;4381018;32;316439;-92
2023/05/09 02:45:09;;;;;;;4.18;2.20;;;;;;;;;;4404657;32;316351;-92
2023/05/09 02:47:37;;;;;;;7.82;2.17;;;;;;;;;;4393906;32;316397;-92
2023/05/09 02:50:07;;;;;;;4.28;2.35;;;;;;;;;;4403908;32;316326;-93
2023/05/09 02:52:36;;;;;;;2.97;2.40;;;;;;;;;;4379351;32;323943;-92
2023/05/09 02:55:03;;;;;;;2.42;2.10;;;;;;;;;;4402917;32;316407;-93
2023/05/09 02:57:33;;;;;;;3.90;2.35;;;;;;;;;;4398966;32;315417;-93
2023/05/09 03:00:02;;;;;;;4.68;2.20;;;;;;;;;;4380224;32;316385;-93
2023/05/09 03:02:29;;;;;;;7.97;2.50;;;;;;;;;;4390647;32;316408;-93
2023/05/09 03:04:56;;;;;;;4.95;2.30;;;;;;;;;;4391556;32;316809;-93
2023/05/09 03:07:23;;;;;;;3.80;2.20;;;;;;;;;;4403400;32;316537;-93
2023/05/09 03:09:51;;;;;;;2.62;1.90;;;;;;;;;;4379668;32;316333;-92
2023/05/09 03:12:18;;;;;;;3.70;2.30;;;;;;;;;;4389086;32;316329;-92
2023/05/09 03:14:45;;;;;;;4.80;2.28;;;;;;;;;;4402674;32;316476;-92
2023/05/09 03:17:16;;;;;;;2.72;2.50;;;;;;;;;;4376277;32;388420;-93
2023/05/09 03:19:43;;;;;;;4.20;2.50;;;;;;;;;;4403936;32;316503;-93
2023/05/09 03:22:11;;;;;;;2.87;2.25;;;;;;;;;;4379331;32;316758;-93
2023/05/09 03:24:38;;;;;;;3.05;2.15;;;;;;;;;;4389224;32;316303;-93
2023/05/09 03:27:10;;;;;;;9.18;2.90;;;;;;;;;;4384277;32;316291;-93
2023/05/09 03:29:39;;;;;;;6.15;2.85;;;;;;;;;;4389270;32;316407;-94
2023/05/09 03:32:06;;;;;;;4.07;2.63;;;;;;;;;;4377624;32;346035;-93
2023/05/09 03:34:34;;;;;;;5.15;3.03;;;;;;;;;;4404086;32;316473;-92
2023/05/09 03:37:02;;;;;;;13.48;3.80;;;;;;;;;;4381958;32;316130;-92
2023/05/09 03:39:31;;;;;;;10.67;3.13;;;;;;;;;;4405445;32;316131;-92
2023/05/09 03:41:58;;;;;;;8.55;3.33;;;;;;;;;;4407546;32;317274;-93
2023/05/09 03:47:10;;;;;;;8.32;3.60;;;;;;;;;;4394691;32;316614;-90
2023/05/09 03:49:37;;;;;;;10.47;3.37;;;;;;;;;;4389956;32;316598;-93
2023/05/09 03:52:04;;;;;;;8.35;3.22;;;;;;;;;;4366019;32;317371;-93
2023/05/09 03:54:35;;;;;;;7.07;3.65;;;;;;;;;;4388789;32;316311;-92
2023/05/09 03:57:02;;;;;;;5.20;3.42;;;;;;;;;;4355898;32;316487;-93
2023/05/09 03:59:31;;;;;;;4.40;3.67;;;;;;;;;;4380385;32;316622;-93
2023/05/09 04:02:03;;;;;;;7.72;4.20;;;;;;;;;;4363167;32;316460;-92
2023/05/09 04:04:30;;;;;;;12.27;4.35;;;;;;;;;;4395500;32;316765;-93
2023/05/09 04:06:58;;;;;;;13.50;4.78;;;;;;;;;;4391791;32;317362;-92
2023/05/09 04:09:27;;;;;;;4.93;3.30;;;;;;;;;;4391016;32;317668;-91
2023/05/09 04:11:54;;;;;;;5.60;3.97;;;;;;;;;;4394739;32;316558;-92
2023/05/09 04:14:21;;;;;;;4.97;4.10;;;;;;;;;;4403066;32;316388;-93
2023/05/09 04:16:51;;;;;;;5.90;4.53;;;;;;;;;;4367605;32;316925;-91
2023/05/09 04:19:18;;;;;;;10.23;5.37;;;;;;;;;;4387901;32;316541;-91
2023/05/09 04:21:48;;;;;;;10.10;4.80;;;;;;;;;;4388412;32;317339;-91
2023/05/09 04:24:15;;;;;;;8.35;4.93;;;;;;;;;;4368394;32;418969;-92
2023/05/09 04:26:43;;;;;;;7.43;5.37;;;;;;;;;;4399702;32;316490;-93
2023/05/09 04:29:10;;;;;;;11.10;5.07;;;;;;;;;;4356672;32;316725;-93
2023/05/09 04:31:39;;;;;;;8.27;5.70;;;;;;;;;;4400764;32;317565;-91
2023/05/09 04:34:08;;;;;;;9.43;6.45;;;;;;;;;;4378723;32;316421;-93
2023/05/09 04:36:35;;;;;;;7.00;4.75;;;;;;;;;;4403215;32;316421;-91
2023/05/09 04:39:03;;;;;;;9.52;4.03;;;;;;;;;;4366169;32;316264;-93
2023/05/09 04:41:33;;;;;;;7.15;4.12;;;;;;;;;;4402002;32;316549;-93
2023/05/09 04:44:00;;;;;;;9.85;4.32;;;;;;;;;;4369083;32;316292;-94
2023/05/09 04:46:30;;;;;;;4.47;3.30;;;;;;;;;;4385717;32;316415;-94
2023/05/09 04:48:58;;;;;;;8.45;3.87;;;;;;;;;;4391602;32;316345;-93
2023/05/09 04:51:30;;;;;;;7.97;4.00;;;;;;;;;;4389304;32;316359;-93
2023/05/09 04:53:58;;;;;;;6.07;3.13;;;;;;;;;;4378241;32;336302;-93
2023/05/09 04:56:26;;;;;;;7.47;3.92;;;;;;;;;;4404631;32;316348;-94
2023/05/09 04:58:52;;;;;;;13.52;3.62;;;;;;;;;;4382184;32;316676;-91
2023/05/09 05:01:20;;;;;;;19.05;4.70;;;;;;;;;;4384822;32;317932;-91
2023/05/09 05:03:48;;;;;;;8.80;4.53;;;;;;;;;;4384083;32;316373;-91
2023/05/09 05:06:15;;;;;;;10.15;5.20;;;;;;;;;;4389577;32;418450;-93
2023/05/09 05:08:49;;;;;;;13.57;5.93;;;;;;;;;;4362659;32;317435;-91
2023/05/09 05:11:17;;;;;;;7.90;4.20;;;;;;;;;;4366686;32;420426;-91
2023/05/09 05:13:45;;;;;;;5.03;3.47;;;;;;;;;;4402947;32;316541;-92
2023/05/09 05:16:13;;;;;;;6.07;3.80;;;;;;;;;;4388155;32;417561;-92
2023/05/09 05:18:42;;;;;;;6.47;3.53;;;;;;;;;;4386664;32;315337;-91
2023/05/09 05:21:12;;;;;;;11.07;2.67;;;;;;;;;;4389748;32;316295;-92
2023/05/09 05:23:41;;;;;;;5.65;3.12;;;;;;;;;;4407462;32;317542;-91
2023/05/09 05:26:11;;;;;;;4.57;3.15;;;;;;;;;;4408143;32;316206;-91
2023/05/09 05:28:46;;;;;;;3.25;2.83;;;;;;;;;;4399725;32;316265;-91
2023/05/09 05:31:14;;;;;;;3.25;2.50;;;;;;;;;;4386309;32;418940;-90
2023/05/09 05:33:43;;;;;;;4.37;2.55;;;;;;;;;;4395286;32;315171;-94
2023/05/09 05:36:10;;;;;;;4.37;2.75;;;;;;;;;;4410647;32;314949;-91
2023/05/09 05:38:38;;;;;;;6.72;3.08;;;;;;;;;;4407919;32;315130;-91
2023/05/09 05:41:09;;;;;;;2.78;2.50;;;;;;;;;;4378256;32;316359;-91
2023/05/09 05:43:38;;;;;;;5.18;3.35;;;;;;;;;;4388469;32;316251;-91
2023/05/09 05:46:05;;;;;;;3.53;3.03;;;;;;;;;;4398941;32;316311;-91
2023/05/09 05:48:32;;;;;;;6.43;2.58;;;;;;;;;;4387726;32;316371;-91
2023/05/09 05:50:59;;;;;;;6.07;2.05;;;;;;;;;;4382454;32;316180;-90
2023/05/09 05:53:26;;;;;;;3.97;2.67;;;;;;;;;;4390040;32;316541;-90
2023/05/09 05:55:55;;;;;;;5.97;2.57;;;;;;;;;;4383343;32;316730;-91
2023/05/09 05:58:23;;;;;;;3.30;2.62;;;;;;;;;;4403943;32;316217;-90
2023/05/09 06:00:53;;;;;;;3.17;2.60;;;;;;;;;;4382022;32;316330;-91
2023/05/09 06:03:20;;;;;;;3.72;2.62;;;;;;;;;;4395908;32;316414;-92
2023/05/09 06:05:47;;;;;;;4.25;2.67;;;;;;;;;;4404983;32;316537;-92
2023/05/09 06:08:17;;;;;;;9.50;2.90;;;;;;;;;;4391268;32;415805;-91
2023/05/09 06:10:45;;;;;;;2.37;2.10;;;;;;;;;;4404991;32;316064;-93
2023/05/09 06:13:12;;;;;;;5.43;2.25;;;;;;;;;;4382585;32;316324;-92
2023/05/09 06:15:39;;;;;;;3.37;2.33;;;;;;;;;;4407490;32;316544;-91
2023/05/09 06:18:12;;;;;;;6.03;2.42;;;;;;;;;;4385461;32;316716;-91
2023/05/09 06:20:39;;;;;;;7.80;2.50;;;;;;;;;;4405931;32;316471;-92
2023/05/09 06:23:20;;;;;;;3.13;2.17;;;;;;;;;;4391306;32;316573;-92
2023/05/09 06:25:47;;;;;;;4.90;1.95;;;;;;;;;;4404367;32;316349;-92
2023/05/09 06:28:17;;;;;;;4.03;2.00;;;;;;;;;;4391442;32;419484;-93
2023/05/09 06:30:49;;;;;;;2.87;2.20;;;;;;;;;;4392758;32;316600;-91
2023/05/09 06:33:17;;;;;;;2.45;2.03;;;;;;;;;;4392601;32;416161;-90
2023/05/09 06:35:48;;;;;;;8.48;3.40;;;;;;;;;;4394660;32;316270;-92
2023/05/09 06:38:15;;;;;;;17.80;11.88;;;;;;;;;;4372339;32;388474;-89
2023/05/09 06:40:42;;;;;;;10.27;6.10;;;;;;;;;;4397418;32;318228;-91
2023/05/09 06:43:13;;;;;;;20.77;8.68;;;;;;;;;;4387745;32;317943;-93
2023/05/09 06:45:44;;;;;;;18.80;8.70;;;;;;;;;;4388899;32;317268;-90
2023/05/09 06:48:11;;;;;;;12.80;5.97;;;;;;;;;;4366480;32;317597;-91
2023/05/09 06:50:40;;;;;;;5.10;3.95;;;;;;;;;;4383037;32;317429;-91
2023/05/09 06:53:07;;;;;;;5.23;3.20;;;;;;;;;;4373618;32;316336;-91
2023/05/09 06:55:38;;;;;;;4.47;3.08;;;;;;;;;;4376288;32;316510;-90
2023/05/09 06:58:05;;;;;;;2.47;2.28;;;;;;;;;;4372841;32;316613;-90
2023/05/09 07:00:32;;;;;;;4.28;2.22;;;;;;;;;;4403667;32;316190;-90
2023/05/09 07:02:59;;;;;;;3.17;2.72;;;;;;;;;;4395401;32;316314;-90
2023/05/09 07:05:26;;;;;;;4.45;2.40;;;;;;;;;;4403453;32;316263;-90
2023/05/09 07:07:55;;;;;;;4.70;2.65;;;;;;;;;;4393160;32;348857;-90
2023/05/09 07:10:23;;;;;;;3.20;2.20;;;;;;;;;;4390901;32;316650;-91
2023/05/09 07:12:50;;;;;;;3.95;2.05;;;;;;;;;;4381870;32;315391;-90
2023/05/09 07:15:18;;;;;;;2.95;2.42;;;;;;;;;;4390679;32;316188;-89
2023/05/09 07:17:46;;;;;;;2.28;2.05;;;;;;;;;;4406673;32;316451;-89
2023/05/09 07:20:20;;;;;;;7.22;2.55;;;;;;;;;;4368716;32;386490;-91
2023/05/09 07:22:54;;;;;;;2.35;2.00;;;;;;;;;;4393461;32;316578;-91
2023/05/09 07:25:25;;;;;;;3.53;2.05;;;;;;;;;;4393303;32;415675;-92
2023/05/09 07:27:52;;;;;;;2.55;2.28;;;;;;;;;;4392260;32;317411;-91
2023/05/09 07:30:21;;;;;;;2.55;2.30;;;;;;;;;;4389428;32;316716;-88
2023/05/09 07:32:48;;;;;;;6.82;3.75;;;;;;;;;;4393323;32;316490;-92
2023/05/09 07:35:15;;;;;;;3.53;2.83;;;;;;;;;;4388220;32;316470;-89
2023/05/09 07:37:44;;;;;;;3.25;2.50;;;;;;;;;;4403729;32;316987;-90
2023/05/09 07:40:12;;;;;;;4.22;2.92;;;;;;;;;;4393001;32;316428;-92
2023/05/09 07:42:48;;;;;;;2.83;2.25;;;;;;;;;;4402387;32;316292;-90
2023/05/09 07:45:15;;;;;;;10.80;2.80;;;;;;;;;;4349170;32;387755;-91
2023/05/09 07:47:42;;;;;;;3.03;2.25;;;;;;;;;;4377349;32;317264;-91
2023/05/09 07:50:09;;;;;;;3.55;1.90;;;;;;;;;;4396362;32;316193;-91
2023/05/09 07:52:39;;;;;;;5.80;2.83;;;;;;;;;;4407486;32;316171;-91
2023/05/09 07:55:11;;;;;;;2.90;2.57;;;;;;;;;;4391988;32;316198;-91
2023/05/09 07:57:38;;;;;;;3.80;1.92;;;;;;;;;;4406114;32;316322;-91
2023/05/09 08:00:12;;;;;;;2.30;2.10;;;;;;;;;;4409694;32;315003;-90
2023/05/09 08:02:40;;;;;;;3.65;2.17;;;;;;;;;;4416082;32;315190;-90
2023/05/09 08:05:10;;;;;;;5.50;2.83;;;;;;;;;;4392753;32;315151;-90
2023/05/09 08:07:38;;;;;;;5.20;2.35;;;;;;;;;;4402403;32;314909;-91
2023/05/09 08:10:06;;;;;;;4.90;2.08;;;;;;;;;;4399702;32;316146;-92
2023/05/09 08:12:34;;;;;;;2.92;2.53;;;;;;;;;;4407431;32;316544;-90
2023/05/09 08:15:01;;;;;;;4.75;3.42;;;;;;;;;;4384796;32;316714;-91
2023/05/09 08:17:31;;;;;;;4.80;2.47;;;;;;;;;;4408007;32;316216;-90
2023/05/09 08:19:58;;;;;;;2.83;2.53;;;;;;;;;;4398188;32;316360;-91
2023/05/09 08:22:24;;;;;;;7.50;2.60;;;;;;;;;;4414885;32;316334;-91
2023/05/09 08:24:53;;;;;;;2.80;2.50;;;;;;;;;;4394457;32;315180;-91
2023/05/09 08:27:20;;;;;;;5.53;2.15;;;;;;;;;;4377581;32;315090;-91
2023/05/09 08:29:47;;;;;;;2.62;2.10;;;;;;;;;;4404176;32;339730;-90
2023/05/09 08:32:15;;;;;;;2.37;1.90;;;;;;;;;;4384449;32;414728;-91
2023/05/09 08:34:46;;;;;;;2.53;2.22;;;;;;;;;;4401353;32;316496;-90
2023/05/09 08:37:16;;;;;;;2.37;1.95;;;;;;;;;;4404898;32;416205;-92
2023/05/09 08:39:43;;;;;;;3.72;2.40;;;;;;;;;;4377083;32;314992;-90
2023/05/09 08:42:11;;;;;;;5.22;2.40;;;;;;;;;;4388393;32;316318;-90
2023/05/09 08:44:39;;;;;;;3.53;2.20;;;;;;;;;;4403863;32;316506;-89
2023/05/09 08:47:08;;;;;;;2.12;1.90;;;;;;;;;;4368352;32;316203;-90
2023/05/09 08:49:36;;;;;;;2.83;2.05;;;;;;;;;;4388107;32;316419;-90
2023/05/09 08:52:05;;;;;;;2.47;1.87;;;;;;;;;;4380145;32;316244;-90
2023/05/09 08:54:34;;;;;;;2.87;1.98;;;;;;;;;;4405946;32;316568;-90
2023/05/09 08:57:01;;;;;;;2.95;1.92;;;;;;;;;;4397250;32;316424;-90
2023/05/09 08:59:32;;;;;;;2.37;1.67;;;;;;;;;;4404336;32;344419;-90
2023/05/09 09:01:59;;;;;;;3.30;2.08;;;;;;;;;;4383081;32;316985;-91
2023/05/09 09:04:26;;;;;;;7.10;2.00;;;;;;;;;;4396829;32;316393;-90
2023/05/09 09:06:54;;;;;;;2.78;1.87;;;;;;;;;;4374147;32;316427;-89
2023/05/09 09:09:24;;;;;;;2.30;1.90;;;;;;;;;;4405973;32;316671;-92
2023/05/09 09:11:54;;;;;;;4.97;1.98;;;;;;;;;;4396968;32;317319;-91
2023/05/09 09:14:25;;;;;;;2.92;1.77;;;;;;;;;;4402848;32;342241;-91
2023/05/09 09:16:54;;;;;;;2.55;2.17;;;;;;;;;;4396564;32;316740;-92
2023/05/09 09:19:26;;;;;;;5.12;2.10;;;;;;;;;;4397770;32;317871;-92
2023/05/09 09:21:55;;;;;;;3.35;2.00;;;;;;;;;;4406085;32;316489;-92
2023/05/09 09:24:25;;;;;;;2.90;1.95;;;;;;;;;;4414218;32;316547;-90
2023/05/09 09:26:52;;;;;;;6.40;1.98;;;;;;;;;;4389008;32;316793;-91
2023/05/09 09:29:23;;;;;;;5.28;2.30;;;;;;;;;;4406700;32;317036;-90
2023/05/09 09:31:55;;;;;;;3.05;1.98;;;;;;;;;;4403300;32;316830;-92
2023/05/09 09:34:27;;;;;;;6.97;2.40;;;;;;;;;;4407822;32;316261;-91
2023/05/09 09:36:55;;;;;;;2.37;2.00;;;;;;;;;;4410009;32;329923;-91
2023/05/09 09:39:23;;;;;;;3.95;1.98;;;;;;;;;;4412409;32;316352;-91
2023/05/09 09:41:51;;;;;;;2.90;2.10;;;;;;;;;;4371877;32;316477;-89
2023/05/09 09:44:19;;;;;;;2.00;1.73;;;;;;;;;;4416121;32;316475;-90
2023/05/09 09:46:49;;;;;;;2.58;2.05;;;;;;;;;;4421801;32;316339;-92
2023/05/09 09:49:18;;;;;;;2.67;1.87;;;;;;;;;;4421365;32;316420;-92
2023/05/09 09:51:46;;;;;;;6.65;2.72;;;;;;;;;;4387724;32;416111;-91
2023/05/09 09:54:13;;;;;;;3.03;2.00;;;;;;;;;;4418471;32;316419;-92
2023/05/09 09:56:44;;;;;;;2.83;2.08;;;;;;;;;;4394952;32;316592;-93
2023/05/09 09:59:13;;;;;;;3.83;2.08;;;;;;;;;;4421070;32;316960;-91
2023/05/09 10:01:57;;;;;;;3.65;2.42;;;;;;;;;;4372883;32;315491;-92
2023/05/09 10:04:27;;;;;;;4.20;2.40;;;;;;;;;;4409433;32;317408;-91
2023/05/09 10:06:56;;;;;;;4.72;2.50;;;;;;;;;;4421658;32;316408;-93
2023/05/09 10:09:23;;;;;;;2.40;1.77;;;;;;;;;;4411386;32;317123;-93
2023/05/09 10:11:55;;;;;;;3.20;2.30;;;;;;;;;;4399095;32;316199;-91
2023/05/09 10:14:24;;;;;;;2.78;2.12;;;;;;;;;;4396281;32;316385;-91
2023/05/09 10:16:58;;;;;;;5.32;2.62;;;;;;;;;;4383891;32;337428;-93
2023/05/09 10:19:29;;;;;;;8.45;2.25;;;;;;;;;;4388646;32;316302;-93
2023/05/09 10:22:00;;;;;;;3.45;2.10;;;;;;;;;;4384622;32;316911;-92
2023/05/09 10:24:34;;;;;;;2.60;2.22;;;;;;;;;;4391467;32;316436;-90
2023/05/09 10:27:18;;;;;;;2.78;2.37;;;;;;;;;;4413038;32;316316;-91
2023/05/09 10:32:40;;;;;;;2.65;2.30;;;;;;;;;;4376416;32;316463;-90
2023/05/09 10:37:53;;;;;;;11.25;2.25;;;;;;;;;;4359946;32;389395;-90
2023/05/09 10:40:20;;;;;;;8.23;2.05;;;;;;;;;;4395557;32;317489;-91
2023/05/09 10:42:49;;;;;;;8.43;2.42;;;;;;;;;;4404719;32;316299;-90
2023/05/09 10:45:21;;;;;;;3.28;1.95;;;;;;;;;;4405687;32;316288;-91
2023/05/09 10:47:50;;;;;;;4.80;2.17;;;;;;;;;;4376180;32;415455;-93
2023/05/09 10:50:18;;;;;;;3.53;1.30;;;;;;;;;;4380870;32;316984;-90
2023/05/09 10:53:26;;;;;;;8.65;1.87;;;;;;;;;;4369694;32;388078;-91
2023/05/09 10:55:55;;;;;;;4.43;2.30;;;;;;;;;;4385632;32;419272;-91
2023/05/09 10:58:27;;;;;;;6.60;1.67;;;;;;;;;;4382791;32;316570;-90
2023/05/09 11:00:56;;;;;;;9.63;2.15;;;;;;;;;;4406489;32;316628;-91
2023/05/09 11:03:25;;;;;;;6.00;1.95;;;;;;;;;;4392058;32;316379;-91
2023/05/09 11:05:53;;;;;;;6.43;2.58;;;;;;;;;;4388885;32;316395;-91
2023/05/09 11:08:25;;;;;;;6.97;2.50;;;;;;;;;;4386030;32;316428;-89
2023/05/09 11:10:54;;;;;;;8.77;2.83;;;;;;;;;;4385663;32;322081;-92
2023/05/09 11:13:24;;;;;;;2.87;1.33;;;;;;;;;;4390758;32;316821;-89
2023/05/09 11:16:05;;;;;;;3.67;1.33;;;;;;;;;;4406126;32;316439;-93
2023/05/09 11:18:41;;;;;;;11.75;2.05;;;;;;;;;;4392437;32;316935;-89
2023/05/09 11:21:10;;;;;;;8.68;1.98;;;;;;;;;;4391851;32;317525;-89
2023/05/09 11:23:43;;;;;;;2.92;1.50;;;;;;;;;;4394442;32;316440;-89
2023/05/09 11:26:16;;;;;;;3.17;1.45;;;;;;;;;;4387365;32;316368;-89
2023/05/09 11:28:52;;;;;;;9.10;4.12;;;;;;;;;;4397338;32;316295;-90
2023/05/09 11:31:22;;;;;;;6.47;2.35;;;;;;;;;;4364848;32;336182;-90
2023/05/09 11:33:57;;;;;;;3.78;1.60;;;;;;;;;;4406265;32;355915;-90
2023/05/09 11:36:32;;;;;;;6.78;1.73;;;;;;;;;;4400144;32;317089;-89
2023/05/09 11:39:06;;;;;;;5.53;1.92;;;;;;;;;;4412239;32;316806;-90
2023/05/09 11:41:46;;;;;;;2.93;1.40;;;;;;;;;;4402704;32;316389;-89
2023/05/09 11:44:19;;;;;;;4.55;1.58;;;;;;;;;;4382529;32;316191;-91
2023/05/09 11:46:51;;;;;;;8.32;1.65;;;;;;;;;;4378003;32;388403;-90
2023/05/09 11:49:19;;;;;;;2.72;1.45;;;;;;;;;;4400307;32;331934;-91
2023/05/09 11:51:49;;;;;;;2.72;1.67;;;;;;;;;;4390260;32;388464;-91
2023/05/09 11:54:16;;;;;;;6.32;1.35;;;;;;;;;;4406573;32;315022;-90
2023/05/09 11:56:43;;;;;;;5.37;1.67;;;;;;;;;;4399026;32;418489;-89
2023/05/09 11:59:13;;;;;;;2.40;1.40;;;;;;;;;;4401244;32;316389;-92
2023/05/09 12:01:41;;;;;;;8.38;1.70;;;;;;;;;;4383394;32;316402;-90
2023/05/09 12:04:25;;;;;;;5.18;1.50;;;;;;;;;;4408820;32;317824;-92
2023/05/09 12:06:54;;;;;;;9.95;1.90;;;;;;;;;;4361149;32;387962;-90
2023/05/09 12:09:23;;;;;;;2.60;1.60;;;;;;;;;;4389056;32;316354;-91
2023/05/09 12:11:50;;;;;;;11.02;2.30;;;;;;;;;;4404294;32;316491;-90
2023/05/09 12:14:27;;;;;;;3.17;1.75;;;;;;;;;;4392560;32;317621;-90
2023/05/09 12:16:54;;;;;;;3.12;1.60;;;;;;;;;;4392678;32;417656;-91
2023/05/09 12:19:24;;;;;;;5.03;2.50;;;;;;;;;;4388551;32;316485;-90
2023/05/09 12:21:57;;;;;;;6.28;2.53;;;;;;;;;;4403894;32;316596;-90
2023/05/09 12:24:25;;;;;;;7.12;3.30;;;;;;;;;;4395239;32;316491;-91
2023/05/09 12:26:53;;;;;;;8.38;1.90;;;;;;;;;;4391227;32;316254;-88
2023/05/09 12:29:22;;;;;;;10.63;2.78;;;;;;;;;;4387152;32;316859;-93
2023/05/09 12:31:52;;;;;;;5.45;2.22;;;;;;;;;;4415251;32;316240;-91
2023/05/09 12:34:19;;;;;;;4.53;2.37;;;;;;;;;;4381094;32;383037;-89
2023/05/09 12:36:49;;;;;;;3.53;1.77;;;;;;;;;;4410006;32;315926;-90
2023/05/09 12:39:20;;;;;;;3.60;2.00;;;;;;;;;;4391549;32;316348;-89
2023/05/09 12:41:48;;;;;;;4.47;2.37;;;;;;;;;;4365401;32;388392;-89
2023/05/09 12:44:20;;;;;;;8.63;3.40;;;;;;;;;;4376920;32;316282;-89
2023/05/09 12:47:00;;;;;;;8.52;2.90;;;;;;;;;;4382974;32;417749;-91
2023/05/09 12:49:28;;;;;;;5.72;3.28;;;;;;;;;;4384226;32;316363;-89
2023/05/09 12:52:17;;;;;;;9.85;2.03;;;;;;;;;;4366634;32;316522;-92
2023/05/09 12:54:46;;;;;;;6.60;2.70;;;;;;;;;;4355360;32;316549;-91
2023/05/09 12:57:28;;;;;;;4.50;1.98;;;;;;;;;;4390756;32;315585;-92
2023/05/09 13:00:00;;;;;;;4.32;2.72;;;;;;;;;;4384707;32;416304;-92
2023/05/09 13:02:37;;;;;;;5.05;2.60;;;;;;;;;;4392888;32;316362;-91
2023/05/09 13:05:20;;;;;;;3.17;2.42;;;;;;;;;;4404455;32;317060;-92
2023/05/09 13:07:52;;;;;;;7.10;1.77;;;;;;;;;;4379013;32;420064;-92
2023/05/09 13:10:22;;;;;;;1.98;1.60;;;;;;;;;;4380646;32;316468;-90
2023/05/09 13:12:53;;;;;;;2.55;1.85;;;;;;;;;;4404345;32;316607;-93
2023/05/09 13:15:21;;;;;;;3.92;2.08;;;;;;;;;;4387542;32;316065;-89
2023/05/09 13:17:49;;;;;;;4.22;2.47;;;;;;;;;;4402917;32;316344;-91
2023/05/09 13:20:17;;;;;;;3.97;2.53;;;;;;;;;;4401860;32;316333;-91
2023/05/09 13:22:44;;;;;;;4.62;2.28;;;;;;;;;;4393177;32;316432;-90
2023/05/09 13:25:19;;;;;;;5.57;2.72;;;;;;;;;;4368759;32;316334;-89
2023/05/09 13:27:46;;;;;;;6.05;3.20;;;;;;;;;;4378536;32;416406;-90
2023/05/09 13:30:15;;;;;;;3.78;2.67;;;;;;;;;;4391091;32;316541;-90
2023/05/09 13:32:42;;;;;;;10.27;4.75;;;;;;;;;;4391306;32;316825;-89
2023/05/09 13:35:18;;;;;;;10.57;3.30;;;;;;;;;;4402287;32;317788;-93
2023/05/09 13:37:45;;;;;;;7.32;4.25;;;;;;;;;;4390307;32;420964;-89
2023/05/09 13:40:18;;;;;;;5.45;3.87;;;;;;;;;;4404555;32;316941;-91
2023/05/09 13:42:48;;;;;;;5.85;3.97;;;;;;;;;;4393491;32;416104;-91
2023/05/09 13:45:15;;;;;;;10.45;4.47;;;;;;;;;;4404636;32;331584;-91
2023/05/09 13:47:42;;;;;;;7.12;4.55;;;;;;;;;;4363624;32;317547;-91
2023/05/09 13:50:12;;;;;;;7.20;4.95;;;;;;;;;;4379864;32;316205;-91
2023/05/09 13:52:41;;;;;;;13.00;5.30;;;;;;;;;;4394445;32;316237;-90
2023/05/09 13:55:10;;;;;;;8.30;4.60;;;;;;;;;;4390678;32;340131;-91
2023/05/09 13:57:40;;;;;;;10.27;5.68;;;;;;;;;;4392823;32;330851;-90
2023/05/09 14:00:12;;;;;;;10.43;6.15;;;;;;;;;;4378162;32;318093;-91
2023/05/09 14:02:39;;;;;;;11.20;6.03;;;;;;;;;;4409130;32;315999;-89
2023/05/09 14:05:06;;;;;;;11.73;5.40;;;;;;;;;;4420151;32;316158;-90
2023/05/09 14:07:36;;;;;;;10.93;5.28;;;;;;;;;;4409794;32;317029;-90
2023/05/09 14:10:04;;;;;;;9.57;6.12;;;;;;;;;;4418956;32;317146;-90
2023/05/09 14:12:32;;;;;;;6.43;5.12;;;;;;;;;;4407911;32;315153;-90
2023/05/09 14:15:05;;;;;;;7.60;5.30;;;;;;;;;;4409389;32;316917;-90
2023/05/09 14:17:32;;;;;;;11.23;5.53;;;;;;;;;;4395496;32;316263;-90
2023/05/09 14:19:59;;;;;;;11.25;5.57;;;;;;;;;;4387080;32;330420;-91
2023/05/09 14:22:28;;;;;;;18.73;6.93;;;;;;;;;;4394537;32;317530;-91
2023/05/09 14:24:56;;;;;;;12.40;6.15;;;;;;;;;;4383687;32;316485;-91
2023/05/09 14:27:23;;;;;;;12.75;6.72;;;;;;;;;;4389789;32;317462;-92
2023/05/09 14:29:54;;;;;;;14.45;6.20;;;;;;;;;;4409493;32;316960;-91
2023/05/09 14:32:26;;;;;;;16.60;7.65;;;;;;;;;;4401103;32;316093;-90
2023/05/09 14:34:53;;;;;;;14.87;6.85;;;;;;;;;;4419270;32;316062;-90
2023/05/09 14:37:20;;;;;;;9.68;6.30;;;;;;;;;;4395407;32;316265;-91
2023/05/09 14:39:48;;;;;;;15.77;6.45;;;;;;;;;;4401219;32;316032;-90
2023/05/09 14:42:17;;;;;;;10.85;5.65;;;;;;;;;;4388325;32;317511;-90
2023/05/09 14:44:46;;;;;;;15.02;6.78;;;;;;;;;;4391850;32;414137;-91
2023/05/09 14:47:13;;;;;;;15.20;7.05;;;;;;;;;;4403092;32;317768;-91
2023/05/09 14:49:42;;;;;;;11.30;6.12;;;;;;;;;;4380743;32;317469;-92
2023/05/09 14:52:09;;;;;;;9.57;6.00;;;;;;;;;;4404914;32;317362;-92